Hjaltland — VSTY8 — position and weather

sailwx.info

Track history (hours):
 
Tides and Currents Weather Stations Pressure Air Temp Water Temp Dewpoint Dewpoint Depression Visibility Wind Speed Wind Dir Waves Ship Positions

Hjaltland

Operator: NorthLink Orkey & Shetland Ferries Ltd

Last reported at 2020-Jul-13 18:00 UTC. Time now 2020-Jul-14 14:03 UTC.
Position N 57°10' W 002°01'.

Type: Ship. MMSI: 235450000.

Date/timePositionNaut miles runAvg speedWind from/ knotsBaromVisibWave heightAir tempDewpointWater temp
2020-Jul-13 18:00N 57°10' W 002°01'2 2.4
2020-Jul-13 17:00N 57°09' W 002°05'0 0.0
2020-Jul-13 13:30N 57°09' W 002°05'0 0.0
2020-Jul-13 13:00N 57°09' W 002°05'0 0.0
2020-Jul-13 08:00N 57°09' W 002°05'115 3.6
2020-Jul-12 00:00N 59°04' W 002°27'1710.1
2020-Jul-11 22:21N 58°60' W 002°58'13 9.5
2020-Jul-11 21:00N 58°55' W 002°35'10719.4
2020-Jul-11 15:27N 57°09' W 002°05'0 0.0
2020-Jul-11 13:30N 57°09' W 002°05'0 0.0
2020-Jul-11 11:00N 57°09' W 002°05'0 0.0
2020-Jul-11 09:00N 57°09' W 002°05'0 0.0
2020-Jul-11 08:00N 57°09' W 002°05'35 7.8
2020-Jul-11 03:30N 57°42' W 001°44'85 3.1
2020-Jul-10 00:15N 59°04' W 002°27'17 7.2
2020-Jul-09 21:55N 58°60' W 002°58'11519.4
2020-Jul-09 16:00N 57°09' W 002°03'1 1.5
2020-Jul-09 15:00N 57°09' W 002°05'0 0.0
2020-Jul-09 14:00N 57°09' W 002°05'0 0.0
2020-Jul-09 12:30N 57°09' W 002°05'0 0.0
2020-Jul-09 12:00N 57°09' W 002°05'0 0.0
2020-Jul-09 11:30N 57°09' W 002°05'0 0.0
2020-Jul-09 10:30N 57°09' W 002°05'0 0.0
2020-Jul-09 09:00N 57°09' W 002°05'0 0.0
2020-Jul-09 08:30N 57°09' W 002°05'0 0.0
2020-Jul-09 07:00N 57°09' W 002°05'0 0.0
2020-Jul-09 06:00N 57°09' W 002°05'11311.9
2020-Jul-08 20:30N 59°01' W 002°36'11 0.5
2020-Jul-07 22:57N 58°60' W 002°58'0 0.0
2020-Jul-07 22:00N 58°60' W 002°58'7819.7
2020-Jul-07 18:01N 57°50' W 001°49'4221.1
2020-Jul-07 16:01N 57°09' W 002°03'1 1.1
2020-Jul-07 14:59N 57°09' W 002°05'0 0.0
2020-Jul-07 13:59N 57°09' W 002°05'0 0.0
2020-Jul-07 13:00N 57°09' W 002°05'0 0.0
2020-Jul-07 11:30N 57°09' W 002°05'0 0.0
2020-Jul-07 11:00N 57°09' W 002°05'0 0.0
2020-Jul-07 07:30N 57°09' W 002°05'1 0.4
2020-Jul-07 05:30N 57°09' W 002°04'613.0
2020-Jul-07 05:00N 57°13' W 001°55'2315.4
2020-Jul-07 03:31N 57°34' W 001°39'1222.7
2020-Jul-07 03:00N 57°45' W 001°44'7422.1
2020-Jul-06 23:39N 58°54' W 002°36'13 8.0
2020-Jul-06 22:03N 58°60' W 002°58'0 0.0
2020-Jul-05 21:57N 58°60' W 002°58'11519.3
2020-Jul-05 16:00N 57°09' W 002°03'1 3.0
2020-Jul-05 15:30N 57°09' W 002°05'0 0.0
2020-Jul-05 12:28N 57°09' W 002°05'0 0.0
2020-Jul-05 10:30N 57°09' W 002°05'1 0.2
2020-Jul-05 05:30N 57°09' W 002°04'1912.9
2020-Jul-05 04:00N 57°24' W 001°43'1212.2
2020-Jul-05 03:00N 57°36' W 001°38'14 0.5
2020-Jul-03 21:28N 57°50' W 001°35'612.1
2020-Jul-03 21:00N 57°44' W 001°35'  
Track history (hours):
 
Tides and Currents Weather Stations Pressure Air Temp Water Temp Dewpoint Dewpoint Depression Visibility Wind Speed Wind Dir Waves Ship Positions

Hjaltland

Operator: NorthLink Orkey & Shetland Ferries Ltd

Last reported at 2020-Jul-13 18:00 UTC. Time now 2020-Jul-14 14:03 UTC.
Position N 57°10' W 002°01'.

Type: Ship. MMSI: 235450000.

Date/timePositionNaut miles runAvg speedWind from/ knotsBaromVisibWave heightAir tempDewpointWater temp
2020-Jul-13 18:00N 57°10' W 002°01'2 2.4
2020-Jul-13 17:00N 57°09' W 002°05'0 0.0
2020-Jul-13 13:30N 57°09' W 002°05'0 0.0
2020-Jul-13 13:00N 57°09' W 002°05'0 0.0
2020-Jul-13 08:00N 57°09' W 002°05'115 3.6
2020-Jul-12 00:00N 59°04' W 002°27'1710.1
2020-Jul-11 22:21N 58°60' W 002°58'13 9.5
2020-Jul-11 21:00N 58°55' W 002°35'10719.4
2020-Jul-11 15:27N 57°09' W 002°05'0 0.0
2020-Jul-11 13:30N 57°09' W 002°05'0 0.0
2020-Jul-11 11:00N 57°09' W 002°05'0 0.0
2020-Jul-11 09:00N 57°09' W 002°05'0 0.0
2020-Jul-11 08:00N 57°09' W 002°05'35 7.8
2020-Jul-11 03:30N 57°42' W 001°44'85 3.1
2020-Jul-10 00:15N 59°04' W 002°27'17 7.2
2020-Jul-09 21:55N 58°60' W 002°58'11519.4
2020-Jul-09 16:00N 57°09' W 002°03'1 1.5
2020-Jul-09 15:00N 57°09' W 002°05'0 0.0
2020-Jul-09 14:00N 57°09' W 002°05'0 0.0
2020-Jul-09 12:30N 57°09' W 002°05'0 0.0
2020-Jul-09 12:00N 57°09' W 002°05'0 0.0
2020-Jul-09 11:30N 57°09' W 002°05'0 0.0
2020-Jul-09 10:30N 57°09' W 002°05'0 0.0
2020-Jul-09 09:00N 57°09' W 002°05'0 0.0
2020-Jul-09 08:30N 57°09' W 002°05'0 0.0
2020-Jul-09 07:00N 57°09' W 002°05'0 0.0
2020-Jul-09 06:00N 57°09' W 002°05'11311.9
2020-Jul-08 20:30N 59°01' W 002°36'11 0.5
2020-Jul-07 22:57N 58°60' W 002°58'0 0.0
2020-Jul-07 22:00N 58°60' W 002°58'7819.7
2020-Jul-07 18:01N 57°50' W 001°49'4221.1
2020-Jul-07 16:01N 57°09' W 002°03'1 1.1
2020-Jul-07 14:59N 57°09' W 002°05'0 0.0
2020-Jul-07 13:59N 57°09' W 002°05'0 0.0
2020-Jul-07 13:00N 57°09' W 002°05'0 0.0
2020-Jul-07 11:30N 57°09' W 002°05'0 0.0
2020-Jul-07 11:00N 57°09' W 002°05'0 0.0
2020-Jul-07 07:30N 57°09' W 002°05'1 0.4
2020-Jul-07 05:30N 57°09' W 002°04'613.0
2020-Jul-07 05:00N 57°13' W 001°55'2315.4
2020-Jul-07 03:31N 57°34' W 001°39'1222.7
2020-Jul-07 03:00N 57°45' W 001°44'7422.1
2020-Jul-06 23:39N 58°54' W 002°36'13 8.0
2020-Jul-06 22:03N 58°60' W 002°58'0 0.0
2020-Jul-05 21:57N 58°60' W 002°58'11519.3
2020-Jul-05 16:00N 57°09' W 002°03'1 3.0
2020-Jul-05 15:30N 57°09' W 002°05'0 0.0
2020-Jul-05 12:28N 57°09' W 002°05'0 0.0
2020-Jul-05 10:30N 57°09' W 002°05'1 0.2
2020-Jul-05 05:30N 57°09' W 002°04'1912.9
2020-Jul-05 04:00N 57°24' W 001°43'1212.2
2020-Jul-05 03:00N 57°36' W 001°38'14 0.5
2020-Jul-03 21:28N 57°50' W 001°35'612.1
2020-Jul-03 21:00N 57°44' W 001°35'  

Dump ship's entire track history